Time;durP1;ratioP1;P1;durP2;ratioP2;P2;SDS_P1;SDS_P2;PMS_P1;PMS_P2;Temp;Humidity;BMP_temperature;BMP_pressure;BME280_temperature;BME280_humidity;BME280_pressure;Samples;Min_cycle;Max_cycle;Signal;HPM_P1;HPM_P2
2023/02/03 00:00:27;;;;;;;26.70;19.43;;;;;;;;;;5046688;28;20747;-45
2023/02/03 00:02:54;;;;;;;26.80;16.13;;;;;;;;;;5049923;28;20432;-46
2023/02/03 00:05:20;;;;;;;31.23;18.30;;;;;;;;;;5046776;28;20423;-46
2023/02/03 00:07:46;;;;;;;30.10;18.10;;;;;;;;;;5053197;28;20442;-46
2023/02/03 00:10:12;;;;;;;31.00;19.53;;;;;;;;;;5045025;28;20449;-46
2023/02/03 00:12:38;;;;;;;31.57;17.90;;;;;;;;;;5052336;28;20565;-45
2023/02/03 00:15:04;;;;;;;25.87;18.83;;;;;;;;;;5039447;28;20773;-46
2023/02/03 00:17:30;;;;;;;33.10;17.20;;;;;;;;;;5045908;28;20418;-45
2023/02/03 00:19:56;;;;;;;29.27;19.63;;;;;;;;;;5049303;28;20420;-45
2023/02/03 00:22:22;;;;;;;32.90;18.33;;;;;;;;;;5047542;28;20422;-45
2023/02/03 00:24:48;;;;;;;31.17;17.47;;;;;;;;;;5042305;28;20893;-45
2023/02/03 00:27:14;;;;;;;35.67;17.70;;;;;;;;;;5046015;28;20440;-45
2023/02/03 00:29:40;;;;;;;25.17;17.50;;;;;;;;;;5044666;28;20925;-46
2023/02/03 00:32:06;;;;;;;27.30;16.33;;;;;;;;;;5050719;28;20470;-47
2023/02/03 00:34:32;;;;;;;30.63;17.77;;;;;;;;;;5045101;28;20435;-48
2023/02/03 00:36:58;;;;;;;27.23;16.10;;;;;;;;;;5033644;28;20432;-46
2023/02/03 00:39:23;;;;;;;26.63;17.20;;;;;;;;;;5046669;28;20504;-45
2023/02/03 00:41:49;;;;;;;23.73;17.33;;;;;;;;;;5048962;28;20866;-45
2023/02/03 00:44:15;;;;;;;34.37;17.83;;;;;;;;;;5045828;28;20479;-46
2023/02/03 00:46:41;;;;;;;18.23;14.17;;;;;;;;;;5044210;28;20477;-47
2023/02/03 00:49:07;;;;;;;22.40;15.70;;;;;;;;;;5044093;28;20420;-44
2023/02/03 00:51:33;;;;;;;24.43;15.07;;;;;;;;;;5049215;28;20471;-44
2023/02/03 00:53:59;;;;;;;31.53;18.37;;;;;;;;;;5050447;28;20420;-46
2023/02/03 00:56:25;;;;;;;44.37;26.53;;;;;;;;;;5049170;28;20511;-47
2023/02/03 00:58:51;;;;;;;26.13;15.67;;;;;;;;;;5050509;28;20842;-42
2023/02/03 01:01:17;;;;;;;27.03;16.73;;;;;;;;;;5045518;28;20421;-43
2023/02/03 01:03:43;;;;;;;26.43;17.40;;;;;;;;;;5052067;28;20492;-42
2023/02/03 01:06:10;;;;;;;24.03;16.60;;;;;;;;;;5051775;28;20812;-42
2023/02/03 01:08:36;;;;;;;36.85;21.38;;;;;;;;;;5051661;28;20412;-45
2023/02/03 01:11:06;;;;;;;29.03;16.30;;;;;;;;;;5045634;28;20196;-47
2023/02/03 01:13:32;;;;;;;27.97;15.60;;;;;;;;;;5051994;28;20463;-43
2023/02/03 01:15:58;;;;;;;26.70;16.30;;;;;;;;;;5048988;28;21748;-42
2023/02/03 01:18:24;;;;;;;29.83;17.50;;;;;;;;;;5050376;28;20417;-43
2023/02/03 01:20:50;;;;;;;30.67;17.80;;;;;;;;;;5042094;28;20404;-43
2023/02/03 01:23:16;;;;;;;25.03;17.23;;;;;;;;;;5049040;28;20421;-43
2023/02/03 01:25:42;;;;;;;25.93;16.80;;;;;;;;;;5043415;28;20437;-43
2023/02/03 01:28:08;;;;;;;25.83;17.30;;;;;;;;;;5051639;28;20419;-45
2023/02/03 01:30:34;;;;;;;30.50;17.30;;;;;;;;;;5043989;28;20480;-45
2023/02/03 01:33:00;;;;;;;28.47;16.13;;;;;;;;;;5048184;28;20499;-45
2023/02/03 01:35:26;;;;;;;22.83;15.30;;;;;;;;;;5039781;28;20516;-46
2023/02/03 01:37:52;;;;;;;34.93;17.97;;;;;;;;;;5048180;28;20492;-48
2023/02/03 01:40:18;;;;;;;31.70;15.27;;;;;;;;;;5045350;28;20415;-48
2023/02/03 01:42:44;;;;;;;26.20;15.73;;;;;;;;;;5045817;28;20470;-48
2023/02/03 01:45:10;;;;;;;25.43;15.87;;;;;;;;;;5043211;28;20417;-44
2023/02/03 01:47:42;;;;;;;24.43;15.40;;;;;;;;;;5051574;28;20416;-45
2023/02/03 01:50:12;;;;;;;27.87;15.87;;;;;;;;;;5036336;28;20412;-44
2023/02/03 01:52:40;;;;;;;25.03;16.03;;;;;;;;;;5051363;28;20469;-45
2023/02/03 01:55:08;;;;;;;27.83;16.27;;;;;;;;;;5039709;28;20412;-44
2023/02/03 01:57:36;;;;;;;24.63;15.50;;;;;;;;;;5046996;28;20490;-45
2023/02/03 02:00:04;;;;;;;30.10;15.40;;;;;;;;;;5043250;28;20407;-44
2023/02/03 02:02:31;;;;;;;29.73;15.13;;;;;;;;;;5043838;28;20417;-44
2023/02/03 02:05:09;;;;;;;27.33;15.60;;;;;;;;;;5042493;28;20938;-43
2023/02/03 02:07:36;;;;;;;26.07;15.80;;;;;;;;;;5043934;28;20426;-43
2023/02/03 02:10:02;;;;;;;32.73;16.23;;;;;;;;;;5043065;28;20421;-48
2023/02/03 02:12:28;;;;;;;23.90;15.80;;;;;;;;;;5051257;28;20461;-48
2023/02/03 02:14:55;;;;;;;20.47;15.60;;;;;;;;;;5048861;28;20776;-49
2023/02/03 02:17:24;;;;;;;25.30;14.80;;;;;;;;;;5044723;28;20802;-47
2023/02/03 02:20:04;;;;;;;34.47;15.40;;;;;;;;;;5051212;28;20763;-47
2023/02/03 02:22:42;;;;;;;24.43;14.40;;;;;;;;;;5051084;28;20416;-45
2023/02/03 02:25:27;;;;;;;29.53;14.83;;;;;;;;;;5043575;28;20401;-45
2023/02/03 02:28:11;;;;;;;31.10;15.40;;;;;;;;;;5042988;28;20838;-45
2023/02/03 02:30:40;;;;;;;22.27;15.00;;;;;;;;;;5042816;28;20500;-46
2023/02/03 02:33:27;;;;;;;26.77;14.07;;;;;;;;;;5043226;28;20475;-46
2023/02/03 02:36:02;;;;;;;17.40;13.37;;;;;;;;;;5049622;28;20419;-45
2023/02/03 02:38:28;;;;;;;25.03;15.37;;;;;;;;;;5050364;28;20942;-46
2023/02/03 02:41:02;;;;;;;21.23;14.70;;;;;;;;;;5042671;28;20441;-45
2023/02/03 02:43:33;;;;;;;25.17;14.60;;;;;;;;;;5044284;28;20448;-46
2023/02/03 02:46:02;;;;;;;25.97;14.27;;;;;;;;;;5041967;28;20471;-45
2023/02/03 02:48:40;;;;;;;28.17;15.03;;;;;;;;;;5046769;28;20532;-46
2023/02/03 02:51:07;;;;;;;25.20;14.43;;;;;;;;;;5051059;28;20511;-46
2023/02/03 02:53:35;;;;;;;21.83;13.83;;;;;;;;;;5050444;28;20564;-45
2023/02/03 02:56:04;;;;;;;21.60;14.10;;;;;;;;;;5046232;28;20451;-46
2023/02/03 02:58:31;;;;;;;25.13;14.10;;;;;;;;;;5052869;28;20438;-45
2023/02/03 03:00:58;;;;;;;20.93;12.47;;;;;;;;;;5046170;28;20784;-45
2023/02/03 03:03:24;;;;;;;24.20;14.73;;;;;;;;;;5052667;28;20412;-45
2023/02/03 03:05:52;;;;;;;22.77;14.83;;;;;;;;;;5046066;28;20994;-46
2023/02/03 03:08:20;;;;;;;21.47;13.90;;;;;;;;;;5048858;28;20877;-45
2023/02/03 03:11:19;;;;;;;19.83;12.93;;;;;;;;;;5052428;28;20413;-45
2023/02/03 03:13:49;;;;;;;19.37;13.03;;;;;;;;;;5054604;28;20482;-45
2023/02/03 03:16:15;;;;;;;29.37;13.87;;;;;;;;;;5054352;28;20477;-45
2023/02/03 03:18:43;;;;;;;20.60;12.50;;;;;;;;;;5054313;28;20892;-45
2023/02/03 03:21:12;;;;;;;21.57;13.70;;;;;;;;;;5054308;28;20481;-45
2023/02/03 03:23:41;;;;;;;18.93;12.57;;;;;;;;;;5054353;28;20410;-45
2023/02/03 03:26:10;;;;;;;20.63;11.93;;;;;;;;;;5054147;28;20424;-45
2023/02/03 03:28:46;;;;;;;18.70;12.10;;;;;;;;;;5054223;28;20502;-44
2023/02/03 03:31:12;;;;;;;18.40;12.80;;;;;;;;;;5054166;28;20393;-44
2023/02/03 03:33:39;;;;;;;16.93;11.90;;;;;;;;;;5054074;28;20467;-44
2023/02/03 03:36:12;;;;;;;25.43;11.70;;;;;;;;;;5053964;28;20928;-45
2023/02/03 03:38:38;;;;;;;16.23;11.43;;;;;;;;;;5054176;28;20413;-45
2023/02/03 03:41:07;;;;;;;15.10;10.53;;;;;;;;;;5054004;28;20483;-45
2023/02/03 03:43:35;;;;;;;13.37;10.20;;;;;;;;;;5053701;28;20424;-45
2023/02/03 03:46:07;;;;;;;16.33;10.50;;;;;;;;;;5054007;28;20475;-44
2023/02/03 03:48:39;;;;;;;13.03;9.10;;;;;;;;;;5053816;28;20407;-44
2023/02/03 03:51:13;;;;;;;11.37;8.93;;;;;;;;;;5053892;28;20959;-45
2023/02/03 03:53:41;;;;;;;12.73;8.83;;;;;;;;;;5053759;28;20464;-45
2023/02/03 03:56:09;;;;;;;16.67;9.07;;;;;;;;;;5053278;28;20436;-45
2023/02/03 03:58:37;;;;;;;14.80;8.17;;;;;;;;;;5053337;28;20507;-45
2023/02/03 04:01:05;;;;;;;14.60;9.30;;;;;;;;;;5053618;28;20402;-45
2023/02/03 04:03:33;;;;;;;14.53;8.47;;;;;;;;;;5053634;28;20408;-44
2023/02/03 04:05:59;;;;;;;13.63;8.50;;;;;;;;;;5053431;28;20428;-45
2023/02/03 04:08:25;;;;;;;13.13;8.90;;;;;;;;;;5053409;28;20412;-45
2023/02/03 04:10:51;;;;;;;16.37;8.20;;;;;;;;;;5053364;28;20499;-44
2023/02/03 04:13:19;;;;;;;15.33;8.10;;;;;;;;;;5053348;28;20471;-44
2023/02/03 04:15:45;;;;;;;11.30;7.93;;;;;;;;;;5053189;28;20928;-44
2023/02/03 04:18:14;;;;;;;17.17;8.60;;;;;;;;;;5053426;28;20415;-45
2023/02/03 04:20:41;;;;;;;13.53;9.30;;;;;;;;;;5053173;28;20400;-44
2023/02/03 04:23:07;;;;;;;15.00;9.77;;;;;;;;;;5053228;28;20421;-45
2023/02/03 04:25:33;;;;;;;16.70;8.20;;;;;;;;;;5052877;28;20486;-46
2023/02/03 04:27:59;;;;;;;13.37;7.73;;;;;;;;;;5053141;28;20456;-45
2023/02/03 04:30:25;;;;;;;11.17;8.50;;;;;;;;;;5053064;28;21090;-45
2023/02/03 04:32:51;;;;;;;13.43;9.30;;;;;;;;;;5052985;28;20456;-45
2023/02/03 04:35:17;;;;;;;17.23;8.80;;;;;;;;;;5052786;28;20405;-45
2023/02/03 04:37:43;;;;;;;10.00;8.07;;;;;;;;;;5052903;28;20483;-45
2023/02/03 04:40:10;;;;;;;9.37;6.80;;;;;;;;;;5052667;28;20487;-44
2023/02/03 04:42:37;;;;;;;13.17;8.27;;;;;;;;;;5052840;28;20924;-45
2023/02/03 04:45:03;;;;;;;19.70;8.20;;;;;;;;;;5052737;28;20484;-44
2023/02/03 04:47:29;;;;;;;13.23;8.63;;;;;;;;;;5052551;28;20487;-44
2023/02/03 04:49:55;;;;;;;17.73;8.70;;;;;;;;;;5052464;28;20420;-45
2023/02/03 04:52:21;;;;;;;10.37;8.43;;;;;;;;;;5052456;28;20486;-45
2023/02/03 04:54:47;;;;;;;10.60;8.90;;;;;;;;;;5052209;28;20810;-44
2023/02/03 04:57:13;;;;;;;12.70;8.83;;;;;;;;;;5052689;28;20873;-45
2023/02/03 04:59:39;;;;;;;10.43;8.27;;;;;;;;;;5052356;28;20761;-45
2023/02/03 05:02:05;;;;;;;13.80;9.00;;;;;;;;;;5052374;28;20403;-45
2023/02/03 05:04:31;;;;;;;14.60;8.80;;;;;;;;;;5052203;28;20446;-44
2023/02/03 05:06:57;;;;;;;11.40;7.67;;;;;;;;;;5052085;28;20432;-44
2023/02/03 05:09:24;;;;;;;15.70;8.80;;;;;;;;;;5052299;28;20891;-44
2023/02/03 05:11:50;;;;;;;18.00;7.60;;;;;;;;;;5051620;28;20449;-44
2023/02/03 05:14:16;;;;;;;10.40;7.90;;;;;;;;;;5052034;28;20956;-45
2023/02/03 05:16:42;;;;;;;10.83;7.40;;;;;;;;;;5052258;28;20943;-44
2023/02/03 05:19:08;;;;;;;10.97;8.00;;;;;;;;;;5052092;28;20461;-45
2023/02/03 05:21:34;;;;;;;10.37;8.17;;;;;;;;;;5051685;28;20408;-45
2023/02/03 05:24:02;;;;;;;21.27;10.23;;;;;;;;;;5051904;28;20405;-45
2023/02/03 05:26:28;;;;;;;11.37;8.27;;;;;;;;;;5051944;28;20424;-44
2023/02/03 05:28:53;;;;;;;10.80;7.70;;;;;;;;;;5051891;28;20414;-44
2023/02/03 05:31:19;;;;;;;9.57;7.97;;;;;;;;;;5051819;28;20443;-45
2023/02/03 05:33:45;;;;;;;14.40;7.80;;;;;;;;;;5051789;28;20471;-45
2023/02/03 05:36:11;;;;;;;12.93;7.07;;;;;;;;;;5051488;28;20961;-45
2023/02/03 05:38:37;;;;;;;11.73;7.33;;;;;;;;;;5052010;28;20956;-45
2023/02/03 05:43:48;;;;;;;11.53;6.37;;;;;;;;;;5051796;28;20416;-44
2023/02/03 05:46:14;;;;;;;12.70;7.13;;;;;;;;;;5051615;28;20432;-45
2023/02/03 05:48:40;;;;;;;10.03;6.80;;;;;;;;;;5051481;28;20408;-44
2023/02/03 05:51:06;;;;;;;13.20;6.00;;;;;;;;;;5051545;28;20417;-45
2023/02/03 05:53:31;;;;;;;12.43;6.80;;;;;;;;;;5051546;28;20460;-45
2023/02/03 05:55:57;;;;;;;15.43;7.07;;;;;;;;;;5051220;28;20435;-44
2023/02/03 05:58:23;;;;;;;12.97;6.90;;;;;;;;;;5051489;28;20429;-44
2023/02/03 06:00:49;;;;;;;15.13;6.40;;;;;;;;;;5051466;28;20401;-45
2023/02/03 06:03:15;;;;;;;12.03;6.17;;;;;;;;;;5051384;28;20412;-44
2023/02/03 06:05:42;;;;;;;9.37;6.00;;;;;;;;;;5051298;28;20436;-44
2023/02/03 06:08:08;;;;;;;10.90;6.00;;;;;;;;;;5051017;28;20939;-45
2023/02/03 06:10:34;;;;;;;9.77;6.30;;;;;;;;;;5031005;28;20404;-45
2023/02/03 06:13:07;;;;;;;11.33;5.87;;;;;;;;;;5030753;28;20468;-45
2023/02/03 06:15:32;;;;;;;8.40;6.50;;;;;;;;;;5050444;28;20442;-45
2023/02/03 06:17:58;;;;;;;5.63;5.13;;;;;;;;;;5050626;28;20400;-45
2023/02/03 06:20:24;;;;;;;11.20;5.27;;;;;;;;;;5049574;28;20465;-45
2023/02/03 06:22:50;;;;;;;9.03;5.00;;;;;;;;;;5052818;28;20931;-44
2023/02/03 06:25:16;;;;;;;10.13;6.87;;;;;;;;;;5036398;28;20427;-45
2023/02/03 06:27:42;;;;;;;9.47;5.90;;;;;;;;;;5054467;28;20455;-45
2023/02/03 06:30:10;;;;;;;9.90;5.90;;;;;;;;;;5054326;28;20418;-44
2023/02/03 06:32:36;;;;;;;9.33;6.10;;;;;;;;;;5054453;28;20451;-43
2023/02/03 06:35:02;;;;;;;8.63;5.17;;;;;;;;;;5054237;28;20412;-45
2023/02/03 06:37:28;;;;;;;8.03;5.87;;;;;;;;;;5054231;28;20420;-45
2023/02/03 06:39:53;;;;;;;8.00;6.03;;;;;;;;;;5054088;28;20626;-44
2023/02/03 06:42:20;;;;;;;14.13;5.83;;;;;;;;;;5036397;28;20416;-45
2023/02/03 06:44:46;;;;;;;10.27;5.70;;;;;;;;;;5053973;28;20784;-45
2023/02/03 06:47:11;;;;;;;8.53;6.13;;;;;;;;;;5053996;28;20951;-45
2023/02/03 06:49:37;;;;;;;6.47;4.83;;;;;;;;;;5054049;28;20415;-44
2023/02/03 06:52:04;;;;;;;5.53;4.33;;;;;;;;;;5054527;28;20522;-45
2023/02/03 06:54:30;;;;;;;6.23;5.47;;;;;;;;;;5053998;28;20408;-45
2023/02/03 06:56:55;;;;;;;11.30;5.03;;;;;;;;;;5034014;28;20789;-45
2023/02/03 06:59:21;;;;;;;6.63;4.30;;;;;;;;;;5039689;28;20407;-45
2023/02/03 07:01:47;;;;;;;7.63;5.27;;;;;;;;;;5052694;28;20817;-45
2023/02/03 07:04:13;;;;;;;14.37;6.00;;;;;;;;;;5053793;28;20477;-45
2023/02/03 07:06:39;;;;;;;10.90;5.60;;;;;;;;;;5053651;28;20423;-45
2023/02/03 07:09:06;;;;;;;7.17;5.43;;;;;;;;;;5053319;28;20845;-45
2023/02/03 07:11:32;;;;;;;5.83;5.10;;;;;;;;;;5053615;28;20420;-45
2023/02/03 07:13:58;;;;;;;9.17;5.37;;;;;;;;;;5053445;28;20409;-45
2023/02/03 07:16:26;;;;;;;8.70;6.43;;;;;;;;;;5052616;28;20425;-45
2023/02/03 07:18:52;;;;;;;7.23;5.60;;;;;;;;;;5053460;28;20408;-45
2023/02/03 07:21:18;;;;;;;10.13;6.10;;;;;;;;;;5054471;28;20435;-44
2023/02/03 07:23:47;;;;;;;10.93;7.50;;;;;;;;;;5053084;28;20415;-45
2023/02/03 07:26:13;;;;;;;9.97;6.90;;;;;;;;;;5053760;28;20430;-44
2023/02/03 07:28:40;;;;;;;9.67;6.80;;;;;;;;;;5053653;28;20463;-46
2023/02/03 07:31:09;;;;;;;10.40;7.20;;;;;;;;;;5033294;28;20405;-45
2023/02/03 07:33:35;;;;;;;10.17;8.07;;;;;;;;;;5033194;28;20501;-45
2023/02/03 07:36:02;;;;;;;10.40;6.07;;;;;;;;;;5048673;28;20529;-45
2023/02/03 07:38:28;;;;;;;11.23;7.80;;;;;;;;;;5046821;28;20420;-44
2023/02/03 07:40:54;;;;;;;13.97;8.30;;;;;;;;;;5029703;28;20785;-45
2023/02/03 07:43:20;;;;;;;9.80;7.23;;;;;;;;;;5047061;28;20992;-45
2023/02/03 07:45:46;;;;;;;10.00;7.20;;;;;;;;;;5049042;28;20539;-45
2023/02/03 07:48:12;;;;;;;10.73;7.53;;;;;;;;;;5046030;28;20418;-44
2023/02/03 07:50:38;;;;;;;8.83;5.90;;;;;;;;;;5049515;28;20503;-44
2023/02/03 07:53:05;;;;;;;11.13;7.70;;;;;;;;;;5044684;28;20496;-44
2023/02/03 07:55:31;;;;;;;7.60;6.47;;;;;;;;;;5053054;28;20435;-45
2023/02/03 07:58:01;;;;;;;8.10;6.17;;;;;;;;;;5044819;28;20475;-45
2023/02/03 08:00:27;;;;;;;13.73;7.47;;;;;;;;;;5047412;28;20414;-44
2023/02/03 08:02:53;;;;;;;8.17;6.70;;;;;;;;;;5048203;28;20884;-45
2023/02/03 08:05:19;;;;;;;15.77;6.97;;;;;;;;;;5046475;28;20507;-44
2023/02/03 08:07:45;;;;;;;9.57;6.23;;;;;;;;;;5026481;28;20417;-44
2023/02/03 08:12:47;;;;;;;12.13;7.30;;;;;;;;;;5443601;22;20255;-44
2023/02/03 08:15:13;;;;;;;11.20;7.57;;;;;;;;;;5107359;28;20858;-44
2023/02/03 08:17:40;;;;;;;14.80;8.53;;;;;;;;;;5091752;28;20826;-44
2023/02/03 08:20:07;;;;;;;11.63;8.40;;;;;;;;;;5082558;28;20497;-49
2023/02/03 08:22:33;;;;;;;11.77;6.83;;;;;;;;;;5090361;28;20470;-44
2023/02/03 08:25:02;;;;;;;9.60;7.67;;;;;;;;;;5091415;28;21196;-48
2023/02/03 08:27:28;;;;;;;10.00;6.73;;;;;;;;;;5091480;28;20423;-46
2023/02/03 08:29:54;;;;;;;8.63;7.30;;;;;;;;;;5094126;28;20407;-46
2023/02/03 08:32:21;;;;;;;11.00;7.20;;;;;;;;;;5085490;28;20454;-47
2023/02/03 08:34:51;;;;;;;13.30;7.47;;;;;;;;;;5087498;28;20941;-47
2023/02/03 08:37:19;;;;;;;10.93;7.07;;;;;;;;;;5091105;28;20411;-46
2023/02/03 08:39:45;;;;;;;11.00;8.37;;;;;;;;;;5086567;28;20411;-46
2023/02/03 08:42:11;;;;;;;10.03;7.90;;;;;;;;;;5082274;28;20447;-47
2023/02/03 08:44:42;;;;;;;16.90;8.73;;;;;;;;;;5071723;28;20916;-46
2023/02/03 08:47:08;;;;;;;11.23;7.17;;;;;;;;;;5076078;28;20908;-46
2023/02/03 08:49:35;;;;;;;17.87;6.80;;;;;;;;;;5092243;28;20403;-46
2023/02/03 08:52:01;;;;;;;11.13;7.30;;;;;;;;;;5092085;28;20466;-46
2023/02/03 08:54:27;;;;;;;9.37;7.27;;;;;;;;;;5092302;28;21082;-46
2023/02/03 08:56:52;;;;;;;9.83;6.77;;;;;;;;;;5092914;28;20439;-46
2023/02/03 08:59:18;;;;;;;8.73;7.40;;;;;;;;;;5092013;28;20461;-46
2023/02/03 09:01:47;;;;;;;7.93;6.60;;;;;;;;;;5090893;28;20420;-46
2023/02/03 09:04:13;;;;;;;13.00;7.73;;;;;;;;;;5092399;28;20487;-46
2023/02/03 09:06:39;;;;;;;12.30;6.97;;;;;;;;;;5092207;28;20909;-46
2023/02/03 09:09:05;;;;;;;8.67;6.27;;;;;;;;;;5092438;28;20498;-46
2023/02/03 09:11:32;;;;;;;11.27;7.53;;;;;;;;;;5091718;28;20438;-46
2023/02/03 09:13:58;;;;;;;13.63;7.53;;;;;;;;;;5092637;28;20422;-45
2023/02/03 09:16:25;;;;;;;10.30;6.90;;;;;;;;;;5092564;28;20475;-46
2023/02/03 09:18:51;;;;;;;12.60;7.10;;;;;;;;;;5092233;28;20485;-46
2023/02/03 09:21:17;;;;;;;14.30;7.37;;;;;;;;;;5091649;28;20426;-46
2023/02/03 09:23:43;;;;;;;13.97;7.87;;;;;;;;;;5092147;28;20744;-46
2023/02/03 09:26:11;;;;;;;8.30;6.50;;;;;;;;;;5091842;28;20415;-46
2023/02/03 09:28:37;;;;;;;10.00;8.17;;;;;;;;;;5092137;28;20893;-45
2023/02/03 09:31:05;;;;;;;14.33;7.43;;;;;;;;;;5091593;28;20410;-46
2023/02/03 09:33:31;;;;;;;11.67;8.60;;;;;;;;;;5091471;28;20535;-46
2023/02/03 09:35:57;;;;;;;11.97;7.97;;;;;;;;;;5091967;28;20774;-46
2023/02/03 09:38:23;;;;;;;12.43;7.33;;;;;;;;;;5092027;28;20545;-46
2023/02/03 09:40:52;;;;;;;11.87;7.70;;;;;;;;;;5091615;28;20407;-46
2023/02/03 09:43:31;;;;;;;11.47;8.10;;;;;;;;;;5091620;28;20426;-46
2023/02/03 09:46:02;;;;;;;13.60;9.30;;;;;;;;;;5091252;28;20408;-46
2023/02/03 09:48:31;;;;;;;14.07;8.77;;;;;;;;;;5091837;28;20489;-46
2023/02/03 09:50:57;;;;;;;14.67;8.43;;;;;;;;;;5091609;28;20877;-46
2023/02/03 09:53:26;;;;;;;12.67;8.30;;;;;;;;;;5091335;28;20454;-46
2023/02/03 09:55:52;;;;;;;14.30;8.20;;;;;;;;;;5091433;28;20870;-46
2023/02/03 09:58:21;;;;;;;10.00;8.00;;;;;;;;;;5091478;28;20468;-46
2023/02/03 10:00:47;;;;;;;11.83;9.30;;;;;;;;;;5091363;28;20407;-46
2023/02/03 10:03:33;;;;;;;13.13;8.53;;;;;;;;;;5091298;28;20437;-46
2023/02/03 10:06:02;;;;;;;14.40;9.23;;;;;;;;;;5091576;28;20411;-46
2023/02/03 10:08:41;;;;;;;9.73;8.10;;;;;;;;;;5111086;28;20946;-46
2023/02/03 10:11:16;;;;;;;14.23;9.73;;;;;;;;;;5111724;28;20504;-46
2023/02/03 10:13:52;;;;;;;14.43;9.07;;;;;;;;;;5111909;28;20788;-46
2023/02/03 10:16:33;;;;;;;18.80;9.00;;;;;;;;;;5111896;28;20398;-46
2023/02/03 10:19:01;;;;;;;20.33;9.13;;;;;;;;;;5111737;28;20880;-46
2023/02/03 10:21:30;;;;;;;13.07;9.17;;;;;;;;;;5111234;28;20428;-46
2023/02/03 10:23:57;;;;;;;14.27;9.83;;;;;;;;;;5111920;28;20415;-46
2023/02/03 10:26:25;;;;;;;15.30;9.37;;;;;;;;;;5111788;28;20399;-46
2023/02/03 10:28:55;;;;;;;14.73;8.83;;;;;;;;;;5111759;28;20493;-46
2023/02/03 10:31:26;;;;;;;9.80;8.43;;;;;;;;;;5111260;28;20414;-46
2023/02/03 10:33:55;;;;;;;11.60;8.43;;;;;;;;;;5111422;28;20815;-46
2023/02/03 10:36:32;;;;;;;14.10;9.50;;;;;;;;;;5111712;28;20410;-46
2023/02/03 10:39:10;;;;;;;11.23;10.07;;;;;;;;;;5111578;28;20397;-46
2023/02/03 10:41:36;;;;;;;15.80;9.23;;;;;;;;;;5111267;28;20477;-46
2023/02/03 10:44:03;;;;;;;14.97;8.77;;;;;;;;;;5111710;28;20425;-46
2023/02/03 10:46:30;;;;;;;17.13;8.10;;;;;;;;;;5111320;28;20406;-45
2023/02/03 10:48:56;;;;;;;9.70;7.93;;;;;;;;;;5111555;28;20445;-46
2023/02/03 10:51:26;;;;;;;12.80;7.87;;;;;;;;;;5111155;28;20870;-46
2023/02/03 10:53:53;;;;;;;15.73;7.83;;;;;;;;;;5111498;28;20464;-46
2023/02/03 10:56:21;;;;;;;8.10;7.30;;;;;;;;;;5111389;28;20402;-46
2023/02/03 10:58:55;;;;;;;13.93;7.43;;;;;;;;;;5111366;28;20429;-46
2023/02/03 11:01:23;;;;;;;14.07;7.60;;;;;;;;;;5092750;28;20414;-46
2023/02/03 11:04:02;;;;;;;10.80;7.90;;;;;;;;;;5108951;28;20417;-46
2023/02/03 11:06:29;;;;;;;18.80;7.10;;;;;;;;;;5105540;28;20422;-46
2023/02/03 11:08:55;;;;;;;8.87;5.40;;;;;;;;;;5092670;28;20406;-46
2023/02/03 11:11:23;;;;;;;14.73;9.07;;;;;;;;;;5093856;28;20409;-46
2023/02/03 11:13:53;;;;;;;13.97;8.10;;;;;;;;;;5094137;28;20446;-46
2023/02/03 11:16:19;;;;;;;12.27;8.10;;;;;;;;;;5094728;28;20414;-46
2023/02/03 11:18:45;;;;;;;13.50;8.97;;;;;;;;;;5101210;28;20405;-46
2023/02/03 11:21:16;;;;;;;14.77;9.73;;;;;;;;;;5113853;28;20773;-46
2023/02/03 11:23:47;;;;;;;15.77;9.70;;;;;;;;;;5095347;28;20467;-46
2023/02/03 11:26:15;;;;;;;13.40;10.30;;;;;;;;;;5093587;28;20476;-46
2023/02/03 11:28:42;;;;;;;11.37;10.17;;;;;;;;;;5093136;28;20406;-46
2023/02/03 11:31:16;;;;;;;16.50;10.40;;;;;;;;;;5092993;28;20494;-46
2023/02/03 11:33:45;;;;;;;14.40;12.20;;;;;;;;;;5094759;28;20510;-46
2023/02/03 11:36:12;;;;;;;16.87;11.00;;;;;;;;;;5093827;28;20472;-46
2023/02/03 11:38:41;;;;;;;13.47;11.00;;;;;;;;;;5094306;28;20785;-46
2023/02/03 11:41:13;;;;;;;15.60;10.23;;;;;;;;;;5094096;28;20907;-46
2023/02/03 11:43:39;;;;;;;15.07;12.23;;;;;;;;;;5094157;28;20399;-46
2023/02/03 11:46:08;;;;;;;16.53;11.07;;;;;;;;;;5094138;28;20406;-46
2023/02/03 11:48:34;;;;;;;16.70;10.17;;;;;;;;;;5094186;28;20411;-46
2023/02/03 11:51:09;;;;;;;13.50;9.57;;;;;;;;;;5093748;28;20407;-46
2023/02/03 11:53:38;;;;;;;12.27;9.50;;;;;;;;;;5093866;28;20446;-47
2023/02/03 11:56:13;;;;;;;12.97;10.17;;;;;;;;;;5107362;28;20413;-46
2023/02/03 11:58:45;;;;;;;16.83;10.10;;;;;;;;;;5114480;28;20391;-46
2023/02/03 12:01:30;;;;;;;17.20;10.10;;;;;;;;;;5113788;28;20452;-46
2023/02/03 12:03:59;;;;;;;17.47;9.57;;;;;;;;;;5107142;28;20859;-46
2023/02/03 12:06:25;;;;;;;13.53;8.40;;;;;;;;;;5073483;28;20435;-46
2023/02/03 12:08:56;;;;;;;13.67;8.77;;;;;;;;;;5073681;28;20443;-46
2023/02/03 12:11:28;;;;;;;10.60;8.40;;;;;;;;;;5073121;28;20403;-46
2023/02/03 12:14:12;;;;;;;9.90;6.97;;;;;;;;;;5072981;28;20542;-46
2023/02/03 12:16:54;;;;;;;10.70;8.77;;;;;;;;;;5073419;28;20465;-46
2023/02/03 12:19:30;;;;;;;18.13;7.73;;;;;;;;;;5072877;28;20415;-46
2023/02/03 12:22:00;;;;;;;10.80;7.83;;;;;;;;;;5075925;28;20913;-46
2023/02/03 12:24:29;;;;;;;15.90;8.10;;;;;;;;;;5093703;28;20959;-46
2023/02/03 12:27:10;;;;;;;14.87;7.77;;;;;;;;;;5093362;28;20439;-46
2023/02/03 12:29:39;;;;;;;13.37;7.90;;;;;;;;;;5093479;28;20395;-46
2023/02/03 12:32:08;;;;;;;12.47;7.73;;;;;;;;;;5092781;28;20455;-46
2023/02/03 12:34:34;;;;;;;8.47;7.50;;;;;;;;;;5093125;28;20402;-46
2023/02/03 12:37:16;;;;;;;13.83;7.90;;;;;;;;;;5093346;28;20407;-46
2023/02/03 12:39:47;;;;;;;18.47;6.83;;;;;;;;;;5092882;28;20395;-46
2023/02/03 12:42:16;;;;;;;9.67;7.00;;;;;;;;;;5093012;28;20430;-46
2023/02/03 12:44:52;;;;;;;8.20;6.13;;;;;;;;;;5092917;28;20411;-46
2023/02/03 12:47:34;;;;;;;10.87;6.50;;;;;;;;;;5092570;28;20937;-46
2023/02/03 12:50:03;;;;;;;10.27;7.07;;;;;;;;;;5092809;28;20410;-46
2023/02/03 12:52:33;;;;;;;13.70;7.87;;;;;;;;;;5092521;28;20462;-46
2023/02/03 12:55:06;;;;;;;9.17;6.40;;;;;;;;;;5096983;28;20402;-46
2023/02/03 12:57:36;;;;;;;9.00;6.10;;;;;;;;;;5113489;28;20938;-46
2023/02/03 13:00:11;;;;;;;14.20;6.50;;;;;;;;;;5113102;28;20402;-46
2023/02/03 13:02:45;;;;;;;9.30;6.50;;;;;;;;;;5112910;28;20429;-46
2023/02/03 13:05:33;;;;;;;18.10;7.43;;;;;;;;;;5112940;28;20401;-46
2023/02/03 13:08:05;;;;;;;9.87;5.57;;;;;;;;;;5112934;28;20401;-46
2023/02/03 13:10:36;;;;;;;15.07;6.03;;;;;;;;;;5112861;28;20399;-46
2023/02/03 13:13:03;;;;;;;13.17;5.53;;;;;;;;;;5105317;28;20473;-46
2023/02/03 13:15:41;;;;;;;12.20;6.00;;;;;;;;;;5094505;28;20805;-47
2023/02/03 13:18:10;;;;;;;6.27;5.30;;;;;;;;;;5093381;28;20396;-47
2023/02/03 13:20:36;;;;;;;7.20;4.93;;;;;;;;;;5092028;28;20415;-45
2023/02/03 13:23:09;;;;;;;17.07;4.97;;;;;;;;;;5092017;28;20848;-44
2023/02/03 13:25:46;;;;;;;6.73;5.00;;;;;;;;;;5092412;28;20819;-44
2023/02/03 13:28:30;;;;;;;8.57;4.73;;;;;;;;;;5091423;28;20896;-46
2023/02/03 13:31:15;;;;;;;5.43;4.43;;;;;;;;;;5090492;28;20423;-47
2023/02/03 13:34:00;;;;;;;9.53;4.77;;;;;;;;;;5091836;28;20508;-44
2023/02/03 13:36:32;;;;;;;5.50;4.30;;;;;;;;;;5092083;28;20834;-44
2023/02/03 13:39:01;;;;;;;6.13;4.00;;;;;;;;;;5091124;28;20465;-45
2023/02/03 13:41:36;;;;;;;13.83;4.47;;;;;;;;;;5091775;28;20642;-44
2023/02/03 13:44:03;;;;;;;6.33;4.57;;;;;;;;;;5091971;28;20448;-45
2023/02/03 13:46:33;;;;;;;6.17;4.00;;;;;;;;;;5092111;28;20769;-43
2023/02/03 13:49:00;;;;;;;8.80;4.47;;;;;;;;;;5091899;28;20391;-43
2023/02/03 13:51:32;;;;;;;8.37;4.50;;;;;;;;;;5091800;28;20441;-44
2023/02/03 13:54:01;;;;;;;10.53;4.00;;;;;;;;;;5091761;28;20447;-44
2023/02/03 13:56:28;;;;;;;8.70;3.93;;;;;;;;;;5108610;28;20493;-44
2023/02/03 13:59:06;;;;;;;8.77;4.47;;;;;;;;;;5112223;28;20391;-44
2023/02/03 14:01:37;;;;;;;14.27;5.10;;;;;;;;;;5112026;28;20785;-43
2023/02/03 14:04:04;;;;;;;5.37;4.07;;;;;;;;;;5112029;28;20482;-46
2023/02/03 14:06:39;;;;;;;9.73;4.93;;;;;;;;;;5112173;28;20449;-43
2023/02/03 14:09:28;;;;;;;17.43;4.20;;;;;;;;;;5112014;28;20398;-49
2023/02/03 14:12:12;;;;;;;10.57;5.57;;;;;;;;;;5103542;28;20843;-43
2023/02/03 14:14:38;;;;;;;14.27;3.97;;;;;;;;;;5111807;28;20426;-44
2023/02/03 14:17:04;;;;;;;13.80;3.53;;;;;;;;;;5112463;28;20405;-45
2023/02/03 14:19:30;;;;;;;11.60;3.70;;;;;;;;;;5112066;28;20919;-45
2023/02/03 14:21:57;;;;;;;11.00;4.23;;;;;;;;;;5111659;28;20433;-46
2023/02/03 14:24:29;;;;;;;6.20;3.47;;;;;;;;;;5111898;28;20410;-44
2023/02/03 14:26:56;;;;;;;9.97;3.57;;;;;;;;;;5113201;28;21004;-44
2023/02/03 14:29:28;;;;;;;7.33;3.33;;;;;;;;;;5111536;28;20792;-48
2023/02/03 14:31:56;;;;;;;27.77;6.33;;;;;;;;;;5111399;28;20419;-43
2023/02/03 14:34:34;;;;;;;11.17;3.20;;;;;;;;;;5111858;28;20895;-43
2023/02/03 14:37:15;;;;;;;22.60;4.63;;;;;;;;;;5100759;28;20410;-43
2023/02/03 14:39:47;;;;;;;24.27;4.00;;;;;;;;;;5091583;28;20453;-47
2023/02/03 14:42:29;;;;;;;22.97;3.77;;;;;;;;;;5090919;28;20761;-43